M I D A S
Marine Information and Data Acquisition System
Tripno 1530 of the Zeeleeuw from 2008-07-31 07:58:34 to 2008-07-31 15:05:41
Back to CruiseResearch ActivitiesStationsMapUnderway DataData graphs

EquipmentUnitsComment
TimeDGPSUTC
LatitudeDGPSDM.mWGS84
LongitudeDGPSDM.mWGS84
HeadingGyrodeg 
SOGDGPSknotsSpeed over ground
COGDGPSdegCourse over ground
DepthEcho soundermeters200 kHz
Missing or incorrect values are displayed as -999
Navigation data collected by the RV Zeeleeuw from 2008-07-31 07:56:53 to 2008-07-31 15:08:53
                                                                                    Next 1000 lines
Time Latitude Longitude Heading SOG COG Depth
2008-07-31 07:57:03 51°13.624 2°56.044 112.7 0.8 294 8.4
2008-07-31 07:57:08 51°13.625 2°56.042 112.7 1.1 295 8.4
2008-07-31 07:57:13 51°13.626 2°56.039 113 1.5 297 8
2008-07-31 07:57:18 51°13.627 2°56.035 113.4 1.9 297 8.4
2008-07-31 07:57:23 51°13.628 2°56.031 113.9 2.2 297 8.5
2008-07-31 07:57:28 51°13.63 2°56.026 114.4 2.4 298 -999
2008-07-31 07:57:33 51°13.632 2°56.021 114.9 2.7 298 -999
2008-07-31 07:57:38 51°13.634 2°56.015 115.2 2.9 298 -999
2008-07-31 07:57:44 51°13.636 2°56.008 115.3 3.2 298 -999
2008-07-31 07:57:49 51°13.638 2°56.001 115.3 3.3 297 -999
2008-07-31 07:57:53 51°13.64 2°55.996 114.9 3.4 298 -999
2008-07-31 07:57:58 51°13.642 2°55.989 114.6 3.5 296 -999
2008-07-31 07:58:03 51°13.644 2°55.982 114.5 3.5 296 -999
2008-07-31 07:58:09 51°13.647 2°55.974 114.4 3.6 294 -999
2008-07-31 07:58:13 51°13.649 2°55.968 114.3 3.6 295 -999
2008-07-31 07:58:18 51°13.65 2°55.96 114.3 3.7 294 -999
2008-07-31 07:58:23 51°13.652 2°55.953 114.3 3.8 294 -999
2008-07-31 07:58:28 51°13.654 2°55.945 114.6 3.8 294 -999
2008-07-31 07:58:34 51°13.657 2°55.935 115.3 3.9 294 -999
2008-07-31 07:58:38 51°13.659 2°55.929 115.7 4 295 -999
2008-07-31 07:58:44 51°13.661 2°55.92 116.2 3.9 295 -999
2008-07-31 07:58:49 51°13.664 2°55.912 116.9 3.9 296 -999
2008-07-31 07:58:54 51°13.666 2°55.904 117.5 3.9 296 -999
2008-07-31 07:58:59 51°13.668 2°55.897 118.3 3.8 297 -999
2008-07-31 07:59:03 51°13.67 2°55.891 119.1 3.6 297 -999
2008-07-31 07:59:08 51°13.673 2°55.884 119.8 3.5 299 -999
2008-07-31 07:59:14 51°13.675 2°55.876 120.3 3.4 299 -999
2008-07-31 07:59:18 51°13.677 2°55.871 120.4 3.5 300 -999
2008-07-31 07:59:23 51°13.68 2°55.864 120.5 3.6 300 4.7
2008-07-31 07:59:28 51°13.683 2°55.857 120.5 3.7 300 -999
2008-07-31 07:59:34 51°13.686 2°55.848 120.5 3.8 301 -999
2008-07-31 07:59:39 51°13.688 2°55.842 120.5 3.7 301 -999
2008-07-31 07:59:43 51°13.69 2°55.836 120.1 3.5 300 -999
2008-07-31 07:59:48 51°13.693 2°55.83 119.8 3.4 301 -999
2008-07-31 07:59:54 51°13.696 2°55.822 119.1 3.4 300 -999
2008-07-31 07:59:59 51°13.698 2°55.816 118.6 3.3 300 -999
2008-07-31 08:00:04 51°13.7 2°55.809 118.1 3.2 300 -999
2008-07-31 08:00:09 51°13.702 2°55.804 117.5 3.1 299 -999
2008-07-31 08:00:13 51°13.704 2°55.799 116.8 3.1 300 -999
2008-07-31 08:00:18 51°13.706 2°55.793 115.8 3 298 -999
2008-07-31 08:00:24 51°13.708 2°55.786 114.6 3 299 -999
2008-07-31 08:00:29 51°13.709 2°55.78 113.8 2.9 298 -999
2008-07-31 08:00:33 51°13.711 2°55.776 112.7 2.8 297 -999
2008-07-31 08:00:38 51°13.712 2°55.77 111.7 2.7 296 -999
2008-07-31 08:00:44 51°13.714 2°55.764 110.7 2.6 296 10.5
2008-07-31 08:00:49 51°13.716 2°55.759 109.5 2.5 294 10.7
2008-07-31 08:00:53 51°13.717 2°55.755 108.4 2.5 294 10.7
2008-07-31 08:00:58 51°13.718 2°55.751 107.3 2.4 292 10.7
2008-07-31 08:01:03 51°13.719 2°55.746 105.7 2.3 291 10.8
2008-07-31 08:01:08 51°13.72 2°55.741 104 2.2 289 10.6
2008-07-31 08:01:13 51°13.721 2°55.737 102.2 2.1 287 10.6
2008-07-31 08:01:18 51°13.722 2°55.732 100.5 2.1 286 10.6
2008-07-31 08:01:23 51°13.722 2°55.728 98.9 2 284 10.9
2008-07-31 08:01:28 51°13.723 2°55.724 97.1 1.9 282 10.8
2008-07-31 08:01:33 51°13.723 2°55.72 94.7 1.9 280 10.9
2008-07-31 08:01:38 51°13.724 2°55.716 92.9 1.8 278 10.7
2008-07-31 08:01:43 51°13.724 2°55.712 91.2 1.4 276 10.8
2008-07-31 08:01:48 51°13.724 2°55.709 89.9 1.6 275 11.2
2008-07-31 08:01:53 51°13.724 2°55.706 88.1 1.4 275 11.4
2008-07-31 08:01:59 51°13.725 2°55.702 86.8 1.3 275 11.3
2008-07-31 08:02:04 51°13.725 2°55.7 85.3 1.1 274 11.2
2008-07-31 08:02:09 51°13.725 2°55.698 83.7 0.9 274 11
2008-07-31 08:02:14 51°13.725 2°55.697 82.4 0.8 276 10.9
2008-07-31 08:02:19 51°13.725 2°55.695 80.4 0.7 274 11
2008-07-31 08:02:24 51°13.725 2°55.694 79 0.6 282 11.1
2008-07-31 08:02:28 51°13.725 2°55.693 76.8 0.4 282 11
2008-07-31 08:02:33 51°13.726 2°55.692 75.1 0.4 293 11
2008-07-31 08:02:38 51°13.726 2°55.692 73.6 0.3 297 10.9
2008-07-31 08:02:43 51°13.726 2°55.691 71.2 0.3 313 10.9
2008-07-31 08:02:48 51°13.726 2°55.691 69.1 0.2 331 11
2008-07-31 08:02:53 51°13.726 2°55.691 66.8 0.3 347 11
2008-07-31 08:02:58 51°13.727 2°55.691 64.5 0.3 11 11.1
2008-07-31 08:03:03 51°13.727 2°55.692 61.9 0.4 24 11.2
2008-07-31 08:03:08 51°13.728 2°55.692 59.3 0.4 22 11.3
2008-07-31 08:03:14 51°13.729 2°55.693 56.5 0.5 22 11.2
2008-07-31 08:03:19 51°13.729 2°55.693 53.7 0.5 28 11.1
2008-07-31 08:03:23 51°13.73 2°55.694 50.8 0.5 22 10.8
2008-07-31 08:03:29 51°13.731 2°55.694 48 0.5 22 10.7
2008-07-31 08:03:34 51°13.731 2°55.694 46.1 0.5 13 10.7
2008-07-31 08:03:39 51°13.732 2°55.694 44 0.5 12 11
2008-07-31 08:03:43 51°13.732 2°55.694 41.9 0.4 7 11.1
2008-07-31 08:03:48 51°13.733 2°55.694 40.1 0.3 355 11.2
2008-07-31 08:03:53 51°13.733 2°55.694 38.2 0.3 344 11
2008-07-31 08:03:59 51°13.733 2°55.694 36.5 0.2 330 11.1
2008-07-31 08:04:04 51°13.734 2°55.694 35.2 0.2 304 11.1
2008-07-31 08:04:08 51°13.734 2°55.693 33.3 0.2 288 11.1
2008-07-31 08:04:13 51°13.734 2°55.693 31.8 0.3 273 11.1
2008-07-31 08:04:18 51°13.734 2°55.692 30.5 0.2 272 11.1
2008-07-31 08:04:23 51°13.734 2°55.692 29.2 0.3 277 11.1
2008-07-31 08:04:28 51°13.734 2°55.691 28 0.3 268 11.1
2008-07-31 08:04:33 51°13.734 2°55.69 27 0.3 268 11.1
2008-07-31 08:04:38 51°13.734 2°55.69 25.5 0.3 267 11.2
2008-07-31 08:04:44 51°13.734 2°55.689 24.3 0.3 258 11.1
2008-07-31 08:04:48 51°13.734 2°55.689 23.2 0.3 261 11.2
2008-07-31 08:04:53 51°13.733 2°55.688 22.2 0.3 259 11.1
2008-07-31 08:04:58 51°13.733 2°55.687 21.2 0.3 263 11.1
2008-07-31 08:05:03 51°13.733 2°55.687 20.2 0.2 260 11.2
2008-07-31 08:05:08 51°13.733 2°55.686 19.6 0.2 253 11.2
2008-07-31 08:05:14 51°13.733 2°55.686 18.7 0.2 242 11.4
2008-07-31 08:05:19 51°13.733 2°55.685 17.9 0.2 259 11.5
2008-07-31 08:05:23 51°13.733 2°55.685 17.4 0.2 258 11.6
2008-07-31 08:05:29 51°13.733 2°55.684 16.7 0.2 238 11.6
2008-07-31 08:05:34 51°13.733 2°55.684 16 0.2 261 11.7
2008-07-31 08:05:38 51°13.733 2°55.684 15.4 0.2 255 11.7
2008-07-31 08:05:43 51°13.733 2°55.683 14.9 0.2 248 11.7
2008-07-31 08:05:49 51°13.733 2°55.683 14.1 0.2 253 11.5
2008-07-31 08:05:53 51°13.733 2°55.683 13.6 0.2 253 11.5
2008-07-31 08:05:58 51°13.732 2°55.682 13.1 0.2 257 11.5
2008-07-31 08:06:03 51°13.732 2°55.682 12.5 0.2 252 11.5
2008-07-31 08:06:08 51°13.732 2°55.681 12.2 0.2 261 11.5
2008-07-31 08:06:13 51°13.732 2°55.681 11.6 0.2 266 11.5
2008-07-31 08:06:18 51°13.732 2°55.681 11.2 0.2 259 11.6
2008-07-31 08:06:23 51°13.732 2°55.681 10.8 0.2 264 11.6
2008-07-31 08:06:28 51°13.732 2°55.68 10.4 0.2 266 11.8
2008-07-31 08:06:34 51°13.732 2°55.68 10.1 0.1 271 11.8
2008-07-31 08:06:39 51°13.732 2°55.68 9.7 0.2 275 11.8
2008-07-31 08:06:43 51°13.732 2°55.679 8.9 0.1 280 11.8
2008-07-31 08:06:48 51°13.732 2°55.679 8 0.2 298 11.8
2008-07-31 08:06:53 51°13.733 2°55.679 7.2 0.2 312 11.8
2008-07-31 08:06:59 51°13.733 2°55.678 6.1 0.4 327 11.8
2008-07-31 08:07:03 51°13.734 2°55.678 4.9 1.2 353 11.8
2008-07-31 08:07:08 51°13.737 2°55.677 3 1.9 351 11.7
2008-07-31 08:07:13 51°13.74 2°55.676 0.2 2.7 352 11.5
2008-07-31 08:07:18 51°13.745 2°55.675 357.4 3.5 350 11.4
2008-07-31 08:07:24 51°13.752 2°55.673 354.5 4.2 349 10.9
2008-07-31 08:07:29 51°13.758 2°55.671 352.6 4.6 348 10.8
2008-07-31 08:07:34 51°13.765 2°55.668 351.2 5.1 347 10.6
2008-07-31 08:07:39 51°13.773 2°55.665 349.7 5.5 345 10.6
2008-07-31 08:07:44 51°13.78 2°55.661 348 5.9 343 10.7
2008-07-31 08:07:49 51°13.789 2°55.656 345.4 6.2 340 10.6
2008-07-31 08:07:54 51°13.797 2°55.651 342.9 6.6 340 10.5
2008-07-31 08:07:58 51°13.804 2°55.646 341.2 6.9 337 10.5
2008-07-31 08:08:03 51°13.813 2°55.64 339.1 7.1 337 10.6
2008-07-31 08:08:08 51°13.822 2°55.634 338.1 7.3 336 10.5
2008-07-31 08:08:13 51°13.832 2°55.626 337.4 7.4 335 10.5
2008-07-31 08:08:18 51°13.841 2°55.62 336.6 7.2 335 10.5
2008-07-31 08:08:23 51°13.85 2°55.613 336 6.9 334 10.5
2008-07-31 08:08:28 51°13.858 2°55.606 335.6 6.7 334 10.5
2008-07-31 08:08:33 51°13.866 2°55.6 335.5 6.5 334 10.5
2008-07-31 08:08:38 51°13.874 2°55.594 335.6 6.4 335 10.5
2008-07-31 08:08:43 51°13.882 2°55.588 336.1 6.3 335 10.4
2008-07-31 08:08:48 51°13.89 2°55.582 336.5 6.2 335 10.5
2008-07-31 08:08:53 51°13.897 2°55.576 336.5 6.1 335 10.5
2008-07-31 08:08:58 51°13.905 2°55.57 336.3 6 335 10.5
2008-07-31 08:09:03 51°13.912 2°55.565 336.3 6 334 10.5
2008-07-31 08:09:08 51°13.92 2°55.559 336.1 5.9 335 10.6
2008-07-31 08:09:13 51°13.927 2°55.553 336 6 334 10.6
2008-07-31 08:09:18 51°13.935 2°55.548 336 6.1 334 10.6
2008-07-31 08:09:23 51°13.942 2°55.542 336 6.1 333 10.8
2008-07-31 08:09:28 51°13.95 2°55.535 336 6.2 334 10.7
2008-07-31 08:09:33 51°13.958 2°55.529 335.9 6.2 334 10.7
2008-07-31 08:09:38 51°13.966 2°55.523 335.9 6.3 334 10.7
2008-07-31 08:09:44 51°13.975 2°55.516 336 6.4 334 10.6
2008-07-31 08:09:48 51°13.982 2°55.511 336.5 6.4 334 10.5
2008-07-31 08:09:53 51°13.989 2°55.505 336.6 6.4 333 10.5
2008-07-31 08:09:58 51°13.997 2°55.498 335.7 6.4 333 10.5
2008-07-31 08:10:03 51°14.005 2°55.492 335 6.4 333 10.5
2008-07-31 08:10:08 51°14.013 2°55.485 335.2 6.5 333 10.6
2008-07-31 08:10:13 51°14.022 2°55.479 336 6.5 334 10.6
2008-07-31 08:10:18 51°14.03 2°55.473 336.4 6.5 334 10.7
2008-07-31 08:10:23 51°14.038 2°55.467 336.4 6.6 335 10.7
2008-07-31 08:10:28 51°14.046 2°55.461 336.6 6.6 336 10.8
2008-07-31 08:10:33 51°14.055 2°55.455 337 6.6 336 10.8
2008-07-31 08:10:38 51°14.063 2°55.449 337 6.6 336 10.8
2008-07-31 08:10:43 51°14.072 2°55.443 336.8 6.7 335 10.8
2008-07-31 08:10:48 51°14.08 2°55.437 336.5 6.7 335 10.8
2008-07-31 08:10:53 51°14.088 2°55.43 336.4 6.7 335 10.8
2008-07-31 08:10:58 51°14.097 2°55.424 336.4 6.7 336 10.8
2008-07-31 08:11:03 51°14.105 2°55.418 336.4 6.7 335 10.7
2008-07-31 08:11:08 51°14.114 2°55.412 336.3 6.7 335 10.8
2008-07-31 08:11:13 51°14.122 2°55.405 335.8 6.6 334 10.9
2008-07-31 08:11:18 51°14.13 2°55.399 335 6.7 333 10.9
2008-07-31 08:11:24 51°14.14 2°55.391 334 6.6 333 10.9
2008-07-31 08:11:28 51°14.146 2°55.385 333.4 6.6 331 10.8
2008-07-31 08:11:33 51°14.154 2°55.377 332.6 6.7 330 10.8
2008-07-31 08:11:38 51°14.162 2°55.37 331.6 6.7 329 10.8
2008-07-31 08:11:44 51°14.172 2°55.361 330.4 6.6 328 10.8
2008-07-31 08:11:48 51°14.178 2°55.354 329.1 6.6 327 10.8
2008-07-31 08:11:53 51°14.185 2°55.346 328.2 6.6 327 10.6
2008-07-31 08:11:58 51°14.193 2°55.338 327.6 6.7 324 10.7
2008-07-31 08:12:03 51°14.2 2°55.329 326.7 6.7 324 10.7
2008-07-31 08:12:08 51°14.208 2°55.32 325.8 6.7 323 10.6
2008-07-31 08:12:13 51°14.215 2°55.311 324.9 6.7 322 10.6
2008-07-31 08:12:18 51°14.223 2°55.302 323.8 6.7 322 10.5
2008-07-31 08:12:23 51°14.23 2°55.292 323.4 6.7 320 10.7
2008-07-31 08:12:28 51°14.237 2°55.283 322.4 6.7 320 10.7
2008-07-31 08:12:33 51°14.244 2°55.273 321.6 6.8 319 10.7
2008-07-31 08:12:39 51°14.253 2°55.261 321.1 6.8 320 10.9
2008-07-31 08:12:43 51°14.258 2°55.254 321.1 6.8 319 11
2008-07-31 08:12:49 51°14.267 2°55.242 321.1 6.8 319 10.7
2008-07-31 08:12:54 51°14.274 2°55.231 320 6.8 318 10.4
2008-07-31 08:12:59 51°14.28 2°55.221 318.8 6.8 317 10.5
2008-07-31 08:13:04 51°14.287 2°55.211 317.8 6.8 316 10.6
2008-07-31 08:13:08 51°14.292 2°55.202 316.5 6.7 314 10.5
2008-07-31 08:13:13 51°14.299 2°55.191 314.9 6.7 313 10.5
2008-07-31 08:13:18 51°14.305 2°55.18 313.5 6.8 312 10.6
2008-07-31 08:13:23 51°14.311 2°55.169 312.5 6.8 311 10.6
2008-07-31 08:13:28 51°14.317 2°55.158 311.6 6.9 311 10.7
2008-07-31 08:13:33 51°14.324 2°55.146 310.8 6.9 310 10.8
2008-07-31 08:13:38 51°14.329 2°55.134 309.9 6.9 309 10.8
2008-07-31 08:13:43 51°14.336 2°55.122 309.4 7 309 11
2008-07-31 08:13:48 51°14.342 2°55.11 309.2 7.2 308 11.1
2008-07-31 08:13:53 51°14.348 2°55.096 309.1 7.4 307 10.9
2008-07-31 08:13:58 51°14.354 2°55.083 308.3 7.7 306 11.1
2008-07-31 08:14:03 51°14.36 2°55.068 307 7.9 305 11.3
2008-07-31 08:14:08 51°14.367 2°55.053 306.4 8.1 304 11.3
2008-07-31 08:14:13 51°14.373 2°55.038 306.7 8.5 304 11
2008-07-31 08:14:18 51°14.38 2°55.022 306.9 8.7 304 10.7
2008-07-31 08:14:23 51°14.388 2°55.006 306.7 9 306 10.4
2008-07-31 08:14:29 51°14.397 2°54.986 308.4 9.4 309 10.5
2008-07-31 08:14:33 51°14.404 2°54.973 310.9 9.7 310 10.5
2008-07-31 08:14:38 51°14.413 2°54.956 312.8 10 312 10.4
2008-07-31 08:14:43 51°14.423 2°54.94 314.5 10.2 314 10.6
2008-07-31 08:14:48 51°14.434 2°54.924 316.7 10.5 316 10.8
2008-07-31 08:14:53 51°14.445 2°54.909 319.4 10.7 321 10.8
2008-07-31 08:14:58 51°14.457 2°54.894 322.9 10.9 322 10.8
2008-07-31 08:15:03 51°14.47 2°54.881 326.1 11.2 326 10.6
2008-07-31 08:15:08 51°14.483 2°54.866 328.6 11.3 326 10.4
2008-07-31 08:15:13 51°14.496 2°54.853 329.6 11.4 328 10.3
2008-07-31 08:15:18 51°14.51 2°54.839 330.9 11.5 328 10.3
2008-07-31 08:15:23 51°14.523 2°54.826 331.9 11.7 329 10.1
2008-07-31 08:15:28 51°14.538 2°54.813 333 11.7 330 10.1
2008-07-31 08:15:33 51°14.552 2°54.8 334.5 11.9 330 9.9
2008-07-31 08:15:38 51°14.566 2°54.787 334.8 11.9 331 9.9
2008-07-31 08:15:43 51°14.581 2°54.774 335.2 11.9 331 9.8
2008-07-31 08:15:48 51°14.595 2°54.762 336 11.9 332 9.8
2008-07-31 08:15:53 51°14.61 2°54.75 336.8 11.9 332 9.7
2008-07-31 08:15:58 51°14.625 2°54.738 337.2 11.9 335 9.7
2008-07-31 08:16:03 51°14.64 2°54.728 338.5 11.9 336 9.7
2008-07-31 08:16:08 51°14.655 2°54.718 340.1 11.9 338 9.6
2008-07-31 08:16:13 51°14.671 2°54.709 342.2 11.9 341 9.7
2008-07-31 08:16:18 51°14.686 2°54.7 344.4 11.9 341 9.7
2008-07-31 08:16:23 51°14.702 2°54.692 345.2 11.9 342 9.7
2008-07-31 08:16:28 51°14.718 2°54.685 346.9 11.9 344 9.6
2008-07-31 08:16:33 51°14.733 2°54.677 348.4 11.9 343 9.7
2008-07-31 08:16:38 51°14.749 2°54.669 348.7 11.9 343 9.6
2008-07-31 08:16:43 51°14.765 2°54.66 348.1 11.9 340 9.6
2008-07-31 08:16:49 51°14.783 2°54.65 346.1 11.9 340 9.6
2008-07-31 08:16:53 51°14.796 2°54.642 345.1 12 340 9.7
2008-07-31 08:16:58 51°14.811 2°54.634 344.9 11.9 341 9.7
2008-07-31 08:17:03 51°14.827 2°54.626 345.3 11.9 342 9.5
2008-07-31 08:17:08 51°14.843 2°54.618 346.5 11.9 343 9.6
2008-07-31 08:17:13 51°14.859 2°54.611 347.6 11.8 345 9.5
2008-07-31 08:17:18 51°14.875 2°54.605 348.8 11.8 346 9.5
2008-07-31 08:17:22 51°14.888 2°54.6 350 11.9 347 9.5
2008-07-31 08:17:27 51°14.904 2°54.595 351.3 11.8 348 9.4
2008-07-31 08:17:33 51°14.923 2°54.589 352.6 11.8 349 9.3
2008-07-31 08:17:37 51°14.936 2°54.585 353.7 11.8 349 9.2
2008-07-31 08:17:42 51°14.952 2°54.58 353.8 11.7 348 9.1
2008-07-31 08:17:47 51°14.968 2°54.574 353.2 11.7 348 9
2008-07-31 08:17:52 51°14.983 2°54.569 352.6 11.7 347 8.8
2008-07-31 08:17:57 51°14.999 2°54.563 352 11.7 348 8.8
2008-07-31 08:18:01 51°15.012 2°54.559 351.9 11.7 347 8.7
2008-07-31 08:18:06 51°15.028 2°54.553 351.8 11.7 347 8.7
2008-07-31 08:18:11 51°15.043 2°54.547 351.7 11.6 347 8.5
2008-07-31 08:18:16 51°15.059 2°54.541 351.3 11.6 347 8.6
2008-07-31 08:18:21 51°15.075 2°54.536 351.2 11.7 347 8.5
2008-07-31 08:18:25 51°15.087 2°54.531 351.2 11.7 347 8.5
2008-07-31 08:18:30 51°15.103 2°54.525 351.2 11.7 347 8.4
2008-07-31 08:18:35 51°15.119 2°54.52 351.5 11.7 348 8.5
2008-07-31 08:18:40 51°15.135 2°54.514 351.8 11.7 347 8.5
2008-07-31 08:18:45 51°15.151 2°54.508 351.9 11.7 347 8.6
2008-07-31 08:18:50 51°15.166 2°54.503 351.7 11.7 347 8.6
2008-07-31 08:18:54 51°15.179 2°54.498 351.5 11.7 347 8.7
2008-07-31 08:19:00 51°15.198 2°54.491 351.5 11.7 347 8.8
2008-07-31 08:19:05 51°15.214 2°54.485 351.8 11.7 347 8.6
2008-07-31 08:19:10 51°15.23 2°54.479 352 11.7 347 8.8
2008-07-31 08:19:15 51°15.245 2°54.474 352.2 11.7 348 8.7
2008-07-31 08:19:20 51°15.261 2°54.468 352.3 11.7 348 8.8
2008-07-31 08:19:25 51°15.277 2°54.462 352.4 11.7 348 8.9
2008-07-31 08:19:29 51°15.289 2°54.458 352.5 11.7 348 9
2008-07-31 08:19:34 51°15.305 2°54.453 352.5 11.7 348 9
2008-07-31 08:19:40 51°15.324 2°54.447 352.6 11.7 348 9
2008-07-31 08:19:45 51°15.34 2°54.441 352.6 11.7 348 9.1
2008-07-31 08:19:49 51°15.353 2°54.437 352.6 11.7 348 9.1
2008-07-31 08:19:55 51°15.372 2°54.431 353 11.7 348 9.2
2008-07-31 08:20:00 51°15.388 2°54.426 353 11.7 349 9.3
2008-07-31 08:20:05 51°15.403 2°54.42 353 11.6 349 9.3
2008-07-31 08:20:09 51°15.416 2°54.416 353.1 11.7 349 9.4
2008-07-31 08:20:15 51°15.435 2°54.411 353.3 11.7 350 9.4
2008-07-31 08:20:20 51°15.451 2°54.406 353.4 11.7 349 9.5
2008-07-31 08:20:25 51°15.467 2°54.401 353.4 11.7 349 9.5
2008-07-31 08:20:31 51°15.486 2°54.396 353.6 11.7 350 9.6
2008-07-31 08:20:35 51°15.499 2°54.392 353.7 11.7 349 9.6
2008-07-31 08:20:40 51°15.515 2°54.387 353.3 11.8 349 9.6
2008-07-31 08:20:45 51°15.531 2°54.382 353.1 11.8 349 9.7
2008-07-31 08:20:50 51°15.547 2°54.376 352.9 11.8 349 9.8
2008-07-31 08:20:55 51°15.563 2°54.371 352.9 11.8 349 9.8
2008-07-31 08:21:00 51°15.579 2°54.366 352.9 11.8 348 9.9
2008-07-31 08:21:05 51°15.595 2°54.361 353.2 11.8 348 9.9
2008-07-31 08:21:10 51°15.611 2°54.356 353.2 11.8 348 10
2008-07-31 08:21:14 51°15.624 2°54.352 353.2 11.8 348 10
2008-07-31 08:21:19 51°15.64 2°54.346 353.2 11.8 348 10
2008-07-31 08:21:25 51°15.659 2°54.34 353.3 11.8 349 10.1
2008-07-31 08:21:30 51°15.675 2°54.335 353.4 11.8 348 10.2
2008-07-31 08:21:35 51°15.691 2°54.33 353.4 11.8 349 10.2
2008-07-31 08:21:39 51°15.704 2°54.326 353.4 11.7 348 10.3
2008-07-31 08:21:45 51°15.723 2°54.32 353.6 11.7 349 10.4
2008-07-31 08:21:50 51°15.739 2°54.314 353.6 11.7 348 10.4
2008-07-31 08:21:54 51°15.752 2°54.31 353.2 11.8 348 10.4
2008-07-31 08:22:00 51°15.771 2°54.304 353.2 11.7 348 10.4
2008-07-31 08:22:05 51°15.788 2°54.299 353.4 11.7 349 10.6
2008-07-31 08:22:10 51°15.803 2°54.294 354 11.7 349 10.5
2008-07-31 08:22:14 51°15.816 2°54.29 354 11.7 349 10.8
2008-07-31 08:22:20 51°15.835 2°54.284 353.9 11.7 349 10.7
2008-07-31 08:22:25 51°15.851 2°54.279 353.8 11.7 349 10.9
2008-07-31 08:22:30 51°15.867 2°54.274 353.8 11.7 349 10.8
2008-07-31 08:22:34 51°15.879 2°54.27 353.8 11.6 349 11.1
2008-07-31 08:22:40 51°15.898 2°54.265 354.5 11.6 350 10.9
2008-07-31 08:22:45 51°15.914 2°54.261 355.5 11.6 351 11
2008-07-31 08:22:50 51°15.93 2°54.257 355.8 11.5 351 11
2008-07-31 08:22:54 51°15.943 2°54.254 356.5 11.6 352 11
2008-07-31 08:23:00 51°15.962 2°54.249 356.9 11.6 352 11.1
2008-07-31 08:23:05 51°15.978 2°54.246 357 11.5 352 11.1
2008-07-31 08:23:10 51°15.994 2°54.242 357 11.6 352 11.3
2008-07-31 08:23:15 51°16.009 2°54.238 357 11.6 352 11.1
2008-07-31 08:23:19 51°16.022 2°54.235 357.4 11.6 352 11.2
2008-07-31 08:23:25 51°16.041 2°54.231 357.4 11.6 352 11.2
2008-07-31 08:23:30 51°16.057 2°54.228 357.7 11.6 354 11.3
2008-07-31 08:23:34 51°16.07 2°54.226 358.6 11.6 353 11.2
2008-07-31 08:23:38 51°16.083 2°54.223 358.5 11.7 353 11.3
2008-07-31 08:23:45 51°16.105 2°54.219 358.2 11.6 354 11.3
2008-07-31 08:23:50 51°16.121 2°54.216 357.5 11.6 352 11.3
2008-07-31 08:23:55 51°16.137 2°54.213 357.2 11.6 353 11.3
2008-07-31 08:24:00 51°16.153 2°54.209 357.4 11.7 352 11.3
2008-07-31 08:24:05 51°16.169 2°54.206 357 11.7 352 11.2
2008-07-31 08:24:10 51°16.185 2°54.202 357 11.6 352 11.2
2008-07-31 08:24:15 51°16.201 2°54.199 357.1 11.7 352 11.2
2008-07-31 08:24:20 51°16.217 2°54.195 357.2 11.6 352 11.2
2008-07-31 08:24:24 51°16.23 2°54.192 357.2 11.5 351 11.2
2008-07-31 08:24:30 51°16.248 2°54.187 357.1 11.2 349 11.2
2008-07-31 08:24:35 51°16.263 2°54.179 353.7 11.1 343 11.2
2008-07-31 08:24:40 51°16.276 2°54.17 347.6 10.8 338 11.2
2008-07-31 08:24:45 51°16.289 2°54.16 342.4 10.4 333 11.2
2008-07-31 08:24:50 51°16.301 2°54.148 338.5 10.3 330 11.2
2008-07-31 08:24:55 51°16.313 2°54.136 335.7 10.2 328 11.3
2008-07-31 08:25:00 51°16.325 2°54.124 333.2 10.1 326 11.4
2008-07-31 08:25:05 51°16.336 2°54.111 331.1 10 324 11.3
2008-07-31 08:25:10 51°16.347 2°54.097 328.9 9.9 321 11.4
2008-07-31 08:25:14 51°16.355 2°54.086 327.1 9.8 321 11.4
2008-07-31 08:25:20 51°16.367 2°54.069 325.3 9.7 319 11.4
2008-07-31 08:25:25 51°16.377 2°54.054 323.6 9.7 316 11.4
2008-07-31 08:25:30 51°16.386 2°54.038 321.2 9.7 314 11.4
2008-07-31 08:25:35 51°16.395 2°54.023 318.3 9.6 311 11.4
2008-07-31 08:25:40 51°16.403 2°54.006 315.5 9.7 309 11.5
2008-07-31 08:25:45 51°16.412 2°53.99 313.9 9.7 310 11.4
2008-07-31 08:25:50 51°16.42 2°53.973 314.2 9.6 310 11.5
2008-07-31 08:25:54 51°16.427 2°53.96 314.9 9.6 310 11.5
2008-07-31 08:25:59 51°16.436 2°53.945 316.1 9.6 311 11.5
2008-07-31 08:26:05 51°16.447 2°53.926 317.6 9.6 313 11.6
2008-07-31 08:26:10 51°16.456 2°53.911 318.5 9.5 314 11.6
2008-07-31 08:26:14 51°16.463 2°53.899 319.7 9.5 315 11.6
2008-07-31 08:26:20 51°16.474 2°53.881 320.8 9.5 315 11.5
2008-07-31 08:26:24 51°16.482 2°53.87 321.8 9.4 316 11.6
2008-07-31 08:26:30 51°16.494 2°53.852 322.5 9.4 317 11.6
2008-07-31 08:26:34 51°16.501 2°53.841 323 9.4 317 11.5
2008-07-31 08:26:39 51°16.511 2°53.827 323.5 9.4 317 11.6
2008-07-31 08:26:44 51°16.52 2°53.813 323.9 9.4 318 11.7
2008-07-31 08:26:50 51°16.532 2°53.796 324.3 9.4 318 11.6
2008-07-31 08:26:55 51°16.542 2°53.783 324.8 9.3 318 11.6
2008-07-31 08:27:00 51°16.551 2°53.769 325 9.4 318 11.6
2008-07-31 08:27:04 51°16.559 2°53.758 325.3 9.3 319 11.6
2008-07-31 08:27:10 51°16.571 2°53.742 325.8 9.3 319 11.6
2008-07-31 08:27:15 51°16.581 2°53.728 325.8 9.3 319 11.6
2008-07-31 08:27:20 51°16.59 2°53.714 325.1 9.3 318 11.6
2008-07-31 08:27:25 51°16.6 2°53.7 324.5 9.3 319 11.5
2008-07-31 08:27:30 51°16.61 2°53.687 324.2 9.3 318 11.5
2008-07-31 08:27:35 51°16.619 2°53.673 323.8 9.2 318 11.6
2008-07-31 08:27:40 51°16.628 2°53.659 323.7 9.2 318 11.6
2008-07-31 08:27:44 51°16.636 2°53.649 323.4 9.2 318 11.6
2008-07-31 08:27:50 51°16.647 2°53.632 323 9.2 318 11.7
2008-07-31 08:27:55 51°16.657 2°53.618 323 9.2 318 11.6
2008-07-31 08:27:59 51°16.664 2°53.608 323.7 9.2 319 11.6
2008-07-31 08:28:04 51°16.674 2°53.594 323.9 9.2 318 11.6
2008-07-31 08:28:10 51°16.685 2°53.578 323.9 9.2 318 11.5
2008-07-31 08:28:15 51°16.695 2°53.564 323.6 9.2 318 11.6
2008-07-31 08:28:19 51°16.702 2°53.553 322.6 9.2 317 11.5
2008-07-31 08:28:24 51°16.711 2°53.539 322.2 9.2 317 11.6
2008-07-31 08:28:30 51°16.722 2°53.523 321.7 9.2 316 11.4
2008-07-31 08:28:35 51°16.731 2°53.508 321.7 9.2 316 11.4
2008-07-31 08:28:40 51°16.74 2°53.495 321.7 9.2 316 11.4
2008-07-31 08:28:44 51°16.748 2°53.484 321.8 9.1 317 11.4
2008-07-31 08:28:49 51°16.757 2°53.47 322 9.2 317 11.5
2008-07-31 08:28:55 51°16.768 2°53.453 322.2 9.2 317 11.5
2008-07-31 08:29:00 51°16.778 2°53.439 322.5 9.1 317 11.4
2008-07-31 08:29:04 51°16.785 2°53.428 322.2 9.1 316 11.4
2008-07-31 08:29:10 51°16.796 2°53.411 321.3 9.2 316 11.4
2008-07-31 08:29:15 51°16.805 2°53.397 321.3 9.1 316 11.3
2008-07-31 08:29:20 51°16.814 2°53.383 321.7 9.1 317 11.3
2008-07-31 08:29:24 51°16.821 2°53.372 322.2 9.1 317 11.3
2008-07-31 08:29:30 51°16.833 2°53.356 322.4 9.1 317 11.2
2008-07-31 08:29:35 51°16.842 2°53.342 322.6 9.1 317 11.2
2008-07-31 08:29:40 51°16.851 2°53.329 322.8 9.1 317 10.9
2008-07-31 08:29:44 51°16.858 2°53.318 322.6 9.1 317 10.5
2008-07-31 08:29:50 51°16.869 2°53.301 322.4 9.1 316 10.3
2008-07-31 08:29:55 51°16.878 2°53.287 322.3 9 317 9.8
2008-07-31 08:29:59 51°16.886 2°53.276 322.1 9 316 9.3
2008-07-31 08:30:05 51°16.896 2°53.26 321.4 9 316 9.1
2008-07-31 08:30:10 51°16.905 2°53.246 320.8 9 315 8.7
2008-07-31 08:30:15 51°16.914 2°53.232 320.7 8.9 315 8.5
2008-07-31 08:30:19 51°16.921 2°53.221 321.1 8.9 316 8.7
2008-07-31 08:30:25 51°16.932 2°53.205 321.5 8.9 316 8.4
2008-07-31 08:30:30 51°16.941 2°53.19 321.4 8.9 315 8.4
2008-07-31 08:30:35 51°16.949 2°53.177 320.7 8.9 315 8.4
2008-07-31 08:30:39 51°16.956 2°53.165 320 8.9 314 8.4
2008-07-31 08:30:44 51°16.965 2°53.151 319.8 8.9 314 8.6
2008-07-31 08:30:50 51°16.975 2°53.134 319.8 9 313 8.7
2008-07-31 08:30:56 51°16.985 2°53.117 319.9 8.9 315 8.6
2008-07-31 08:31:00 51°16.992 2°53.106 320.5 8.9 315 8.7
2008-07-31 08:31:05 51°17.001 2°53.092 320.8 8.9 315 8.6
2008-07-31 08:31:10 51°17.01 2°53.078 321 8.9 315 8.7
2008-07-31 08:31:15 51°17.019 2°53.064 320.5 8.9 314 8.7
2008-07-31 08:31:20 51°17.027 2°53.05 320.2 9 314 8.9
2008-07-31 08:31:24 51°17.034 2°53.039 320 8.9 314 9
2008-07-31 08:31:29 51°17.042 2°53.024 319.7 9 313 8.9
2008-07-31 08:31:35 51°17.053 2°53.007 319.4 9 313 9
2008-07-31 08:31:40 51°17.061 2°52.993 319.5 9 314 9.2
2008-07-31 08:31:45 51°17.07 2°52.979 319.9 8.9 314 9.4
2008-07-31 08:31:50 51°17.078 2°52.964 320.1 9 314 9.3
2008-07-31 08:31:54 51°17.085 2°52.953 320.3 9 314 9.6
2008-07-31 08:32:00 51°17.096 2°52.936 320.3 9 314 9.5
2008-07-31 08:32:05 51°17.104 2°52.922 320 9 314 9.7
2008-07-31 08:32:10 51°17.113 2°52.907 320 9 313 9.9
2008-07-31 08:32:15 51°17.121 2°52.893 320 9 314 9.9
2008-07-31 08:32:20 51°17.13 2°52.878 320 9 314 10
2008-07-31 08:32:25 51°17.138 2°52.864 320.4 8.9 314 10
2008-07-31 08:32:30 51°17.147 2°52.85 320.7 9 315 10.1
2008-07-31 08:32:35 51°17.156 2°52.836 321 9 314 10.1
2008-07-31 08:32:40 51°17.165 2°52.822 320.9 8.9 315 10.2
2008-07-31 08:32:45 51°17.173 2°52.808 320.7 8.9 314 10.1
2008-07-31 08:32:50 51°17.182 2°52.794 320.7 8.9 315 10.1
2008-07-31 08:32:55 51°17.191 2°52.78 320.9 9 315 10.3
2008-07-31 08:33:00 51°17.199 2°52.766 321 9 315 10.1
2008-07-31 08:33:04 51°17.206 2°52.754 320.9 9 315 10.3
2008-07-31 08:33:10 51°17.217 2°52.737 320.8 9 315 10.5
2008-07-31 08:33:15 51°17.226 2°52.723 320.8 9 315 10.1
2008-07-31 08:33:20 51°17.234 2°52.709 321 8.9 315 10.1
2008-07-31 08:33:24 51°17.241 2°52.698 321 8.9 315 10.1
2008-07-31 08:33:30 51°17.252 2°52.681 321.5 9 315 10.1
2008-07-31 08:33:35 51°17.26 2°52.667 321.6 9 315 10.1
2008-07-31 08:33:40 51°17.269 2°52.653 321.6 8.9 315 10.1
2008-07-31 08:33:44 51°17.276 2°52.642 321.3 9 314 10.1
2008-07-31 08:33:49 51°17.285 2°52.628 321.1 9 315 10.2
2008-07-31 08:33:55 51°17.295 2°52.611 320.9 9 314 10.2
2008-07-31 08:34:00 51°17.304 2°52.597 320.8 9 315 10.3
2008-07-31 08:34:04 51°17.311 2°52.585 320.8 9 315 10.4
2008-07-31 08:34:10 51°17.321 2°52.568 320.8 9 314 10.3
2008-07-31 08:34:14 51°17.328 2°52.557 320.8 9 314 10.3
2008-07-31 08:34:20 51°17.339 2°52.539 320.6 9 314 10.5
2008-07-31 08:34:24 51°17.346 2°52.528 320.7 9 314 10.5
2008-07-31 08:34:29 51°17.354 2°52.514 320.9 9 314 10.5
2008-07-31 08:34:35 51°17.365 2°52.497 320.7 9 314 10.5
2008-07-31 08:34:40 51°17.373 2°52.482 320.7 9 315 10.7
2008-07-31 08:34:45 51°17.382 2°52.468 321 9 315 10.5
2008-07-31 08:34:50 51°17.391 2°52.454 321.2 9 315 10.7
2008-07-31 08:34:55 51°17.4 2°52.44 321 9 315 10.7
2008-07-31 08:35:00 51°17.408 2°52.426 321.1 9 315 10.7
2008-07-31 08:35:05 51°17.417 2°52.412 321.2 9 315 10.7
2008-07-31 08:35:10 51°17.426 2°52.398 321.5 9 316 10.8
2008-07-31 08:35:15 51°17.435 2°52.385 322.1 9 316 10.6
2008-07-31 08:35:20 51°17.444 2°52.371 322.3 9 316 10.8
2008-07-31 08:35:24 51°17.451 2°52.359 321.9 9 315 10.7
2008-07-31 08:35:30 51°17.462 2°52.343 321.4 9 315 10.8
2008-07-31 08:35:35 51°17.471 2°52.328 321.1 9 315 10.8
2008-07-31 08:35:40 51°17.48 2°52.314 320.9 9 315 10.8
2008-07-31 08:35:44 51°17.487 2°52.303 320.9 9 316 10.8
2008-07-31 08:35:48 51°17.494 2°52.292 321.2 9 316 10.8
2008-07-31 08:35:55 51°17.506 2°52.273 321.5 9 316 10.8
2008-07-31 08:36:00 51°17.515 2°52.259 321.5 9 315 10.8
2008-07-31 08:36:05 51°17.524 2°52.244 321.2 9.1 314 10.9
2008-07-31 08:36:10 51°17.533 2°52.23 320.6 9 314 10.7
2008-07-31 08:36:15 51°17.542 2°52.216 320.4 9.1 314 10.9
2008-07-31 08:36:20 51°17.551 2°52.202 320.7 9.1 315 10.8
2008-07-31 08:36:24 51°17.558 2°52.19 321.5 9 316 10.9
2008-07-31 08:36:30 51°17.568 2°52.174 322.1 9 316 10.7
2008-07-31 08:36:35 51°17.577 2°52.16 322.2 9 315 10.9
2008-07-31 08:36:40 51°17.586 2°52.146 321.8 9 315 10.8
2008-07-31 08:36:45 51°17.595 2°52.131 321.3 9 315 10.9
2008-07-31 08:36:50 51°17.604 2°52.117 321 9 314 10.9
2008-07-31 08:36:55 51°17.613 2°52.103 320.8 9 315 10.8
2008-07-31 08:37:00 51°17.621 2°52.089 320.8 9 315 10.9
2008-07-31 08:37:05 51°17.63 2°52.075 321.2 9 315 10.8
2008-07-31 08:37:10 51°17.639 2°52.061 321.3 9 315 10.8
2008-07-31 08:37:15 51°17.648 2°52.047 321.3 9 315 10.7
2008-07-31 08:37:20 51°17.656 2°52.033 321.4 9 315 10.7
2008-07-31 08:37:24 51°17.663 2°52.022 321.4 9 315 10.7
2008-07-31 08:37:30 51°17.674 2°52.005 321.3 9 315 10.8
2008-07-31 08:37:35 51°17.683 2°51.991 321.3 9 315 10.7
2008-07-31 08:37:40 51°17.691 2°51.977 321.3 9 315 10.7
2008-07-31 08:37:44 51°17.698 2°51.966 321.3 9 315 10.7
2008-07-31 08:37:50 51°17.709 2°51.949 321.2 9 316 10.7
2008-07-31 08:37:55 51°17.718 2°51.935 321.2 8.9 316 10.7
2008-07-31 08:38:00 51°17.727 2°51.922 321.6 8.9 317 10.5
2008-07-31 08:38:04 51°17.734 2°51.911 323.7 8.9 319 10.6
2008-07-31 08:38:10 51°17.746 2°51.897 325.8 8.9 321 10.7
2008-07-31 08:38:15 51°17.756 2°51.885 326.9 8.9 322 10.8
2008-07-31 08:38:20 51°17.766 2°51.873 328.4 8.8 324 10.8
2008-07-31 08:38:24 51°17.774 2°51.864 329.6 8.8 325 10.6
2008-07-31 08:38:30 51°17.786 2°51.852 331.1 8.8 327 10.7
2008-07-31 08:38:35 51°17.797 2°51.843 334 8.7 332 10.6
2008-07-31 08:38:40 51°17.808 2°51.836 338.7 8.6 337 10.8
2008-07-31 08:38:44 51°17.817 2°51.83 342.7 8.5 340 10.5
2008-07-31 08:38:49 51°17.828 2°51.825 347 8.4 344 10.7
2008-07-31 08:38:55 51°17.841 2°51.821 349.8 8.3 348 10.7
2008-07-31 08:39:00 51°17.853 2°51.818 352.6 8.3 352 10.5
2008-07-31 08:39:05 51°17.865 2°51.816 355.5 8.4 352 10.6
2008-07-31 08:39:10 51°17.876 2°51.815 358 8.3 356 10.8
2008-07-31 08:39:15 51°17.887 2°51.814 0.3 8.3 358 10.8
2008-07-31 08:39:20 51°17.899 2°51.814 2.7 8.3 -999 10.7
2008-07-31 08:39:25 51°17.911 2°51.814 3.5 8.3 -999 10.6
2008-07-31 08:39:30 51°17.922 2°51.814 3.6 8.4 -999 10.7
2008-07-31 08:39:35 51°17.934 2°51.815 3.5 8.4 1 10.9
2008-07-31 08:39:40 51°17.946 2°51.816 4.9 8.4 3 10.8
2008-07-31 08:39:45 51°17.957 2°51.818 6.8 8.4 5 11
2008-07-31 08:39:50 51°17.969 2°51.82 9.3 8.4 8 10.8
2008-07-31 08:39:55 51°17.98 2°51.824 10.8 8.3 10 10.9
2008-07-31 08:40:00 51°17.991 2°51.827 13.7 8.3 13 11
2008-07-31 08:40:04 51°18 2°51.831 15.9 8.3 15 10.9
2008-07-31 08:40:10 51°18.013 2°51.838 18.5 8.3 18 11
2008-07-31 08:40:15 51°18.024 2°51.845 20.8 8.3 21 11.2
2008-07-31 08:40:20 51°18.034 2°51.853 23.7 8.3 24 11
2008-07-31 08:40:24 51°18.043 2°51.859 26.8 8.3 26 11.1
2008-07-31 08:40:29 51°18.053 2°51.868 27.9 8.3 28 11.2
2008-07-31 08:40:35 51°18.065 2°51.878 28.9 8.3 28 11.2
2008-07-31 08:40:40 51°18.075 2°51.887 29.3 8.3 29 11.3
2008-07-31 08:40:44 51°18.083 2°51.894 29.9 8.3 29 11.2
2008-07-31 08:40:50 51°18.095 2°51.905 30.7 8.4 30 11.2
2008-07-31 08:40:54 51°18.103 2°51.913 31.7 8.4 31 11.3
2008-07-31 08:41:00 51°18.115 2°51.925 32.3 8.4 33 11.1
2008-07-31 08:41:04 51°18.123 2°51.933 32.8 8.4 32 11.3
2008-07-31 08:41:10 51°18.134 2°51.945 33.7 8.4 34 11.4
2008-07-31 08:41:15 51°18.144 2°51.956 34.4 8.4 34 11.3
2008-07-31 08:41:20 51°18.153 2°51.966 34.5 8.4 35 11.4
2008-07-31 08:41:25 51°18.163 2°51.977 34.7 8.4 34 11.3
2008-07-31 08:41:30 51°18.172 2°51.988 35.3 8.4 35 11.2
2008-07-31 08:41:35 51°18.182 2°51.999 36.2 8.4 37 11.3
2008-07-31 08:41:40 51°18.191 2°52.01 36.7 8.4 36 11.3
2008-07-31 08:41:45 51°18.2 2°52.022 37.3 8.4 38 11.4
2008-07-31 08:41:50 51°18.21 2°52.033 37.5 8.4 38 11.4
2008-07-31 08:41:55 51°18.219 2°52.045 38.1 8.5 40 11.4
2008-07-31 08:42:00 51°18.228 2°52.058 39.4 8.8 40 11.4
2008-07-31 08:42:05 51°18.237 2°52.071 40.2 9 41 11.4
2008-07-31 08:42:10 51°18.247 2°52.085 41.3 9.2 42 11.5
2008-07-31 08:42:15 51°18.256 2°52.1 42.8 9.4 45 11.5
2008-07-31 08:42:20 51°18.265 2°52.115 44.4 9.5 46 11.3
2008-07-31 08:42:24 51°18.272 2°52.127 45.7 9.6 47 11.5
2008-07-31 08:42:29 51°18.281 2°52.144 47.8 9.7 50 11.5
2008-07-31 08:42:35 51°18.291 2°52.165 49.8 9.8 52 11.4
2008-07-31 08:42:40 51°18.299 2°52.182 51.2 9.9 53 11.5
2008-07-31 08:42:45 51°18.307 2°52.2 52.4 9.9 54 11.5
2008-07-31 08:42:49 51°18.313 2°52.215 54 10 56 11.4
2008-07-31 08:42:55 51°18.322 2°52.238 55.1 10.2 57 11.7
2008-07-31 08:43:00 51°18.33 2°52.257 56.2 10.3 58 11.7
2008-07-31 08:43:05 51°18.338 2°52.277 57 10.4 59 11.5
2008-07-31 08:43:10 51°18.345 2°52.297 57.4 10.6 59 11.5
2008-07-31 08:43:15 51°18.352 2°52.318 57.9 10.7 60 11.6
2008-07-31 08:43:20 51°18.36 2°52.338 58.3 10.9 60 11.4
2008-07-31 08:43:25 51°18.367 2°52.36 59.4 11 62 11.7
2008-07-31 08:43:29 51°18.372 2°52.378 60.5 11.1 63 11.6
2008-07-31 08:43:35 51°18.381 2°52.404 61.3 11.2 63 11.7
2008-07-31 08:43:40 51°18.387 2°52.427 63.6 11.2 67 11.5
2008-07-31 08:43:45 51°18.393 2°52.45 64.7 11.2 67 11.6
2008-07-31 08:43:50 51°18.398 2°52.473 65.6 11.2 69 11.5
2008-07-31 08:43:55 51°18.404 2°52.496 66.7 11.3 69 11.7
2008-07-31 08:44:00 51°18.409 2°52.52 66.8 11.3 70 11.6
2008-07-31 08:44:05 51°18.415 2°52.544 67.6 11.3 70 11.5
2008-07-31 08:44:10 51°18.42 2°52.567 67.9 11.4 70 11.6
2008-07-31 08:44:15 51°18.425 2°52.591 67.9 11.3 70 11.5
2008-07-31 08:44:20 51°18.431 2°52.614 68.1 11.3 70 11.6
2008-07-31 08:44:24 51°18.435 2°52.633 68.2 11.3 70 11.6
2008-07-31 08:44:30 51°18.442 2°52.661 68 11.3 69 11.5
2008-07-31 08:44:35 51°18.447 2°52.685 67.5 11.4 70 11.5
2008-07-31 08:44:40 51°18.453 2°52.708 67.4 11.4 69 11.6
2008-07-31 08:44:44 51°18.457 2°52.727 67.7 11.4 70 11.7
2008-07-31 08:44:50 51°18.463 2°52.756 67.9 11.4 69 11.7
2008-07-31 08:44:55 51°18.469 2°52.779 68 11.4 70 11.6
2008-07-31 08:45:00 51°18.474 2°52.803 68.1 11.4 70 11.6
2008-07-31 08:45:05 51°18.48 2°52.827 68.1 11.4 70 11.6
2008-07-31 08:45:10 51°18.485 2°52.85 68 11.3 69 11.7
2008-07-31 08:45:15 51°18.49 2°52.874 67.8 11.4 69 11.7
2008-07-31 08:45:20 51°18.496 2°52.897 67.4 11.4 69 11.7
2008-07-31 08:45:24 51°18.501 2°52.916 67.2 11.4 69 11.7
2008-07-31 08:45:29 51°18.506 2°52.939 67.1 11.4 69 11.7
2008-07-31 08:45:35 51°18.513 2°52.968 67.4 11.4 69 11.8
2008-07-31 08:45:40 51°18.519 2°52.991 66.7 11.4 68 11.7
2008-07-31 08:45:45 51°18.524 2°53.015 66.7 11.4 70 11.7
2008-07-31 08:45:50 51°18.53 2°53.039 67.1 11.4 70 11.6
2008-07-31 08:45:55 51°18.533 2°53.063 70.3 11.4 76 11.7
2008-07-31 08:46:00 51°18.537 2°53.088 73 11.3 76 11.7
2008-07-31 08:46:05 51°18.54 2°53.112 74.3 11.4 78 11.6
2008-07-31 08:46:10 51°18.544 2°53.137 75.3 11.4 78 11.7
2008-07-31 08:46:15 51°18.547 2°53.162 75.6 11.4 79 11.7
2008-07-31 08:46:20 51°18.549 2°53.186 76.3 11.3 80 11.7
2008-07-31 08:46:24 51°18.552 2°53.206 76.8 11.3 80 11.7
2008-07-31 08:46:30 51°18.555 2°53.236 76.8 11.4 80 11.7
2008-07-31 08:46:35 51°18.558 2°53.26 77.2 11.3 80 11.6
2008-07-31 08:46:40 51°18.56 2°53.285 77.6 11.4 81 11.7
2008-07-31 08:46:44 51°18.562 2°53.305 77.6 11.4 81 11.7
2008-07-31 08:46:50 51°18.564 2°53.335 78.5 11.4 83 11.7
2008-07-31 08:46:55 51°18.564 2°53.36 82.6 11.4 90 11.8
2008-07-31 08:47:00 51°18.564 2°53.385 86.3 11.4 91 11.7
2008-07-31 08:47:04 51°18.563 2°53.406 89.2 11.5 96 11.7
2008-07-31 08:47:10 51°18.56 2°53.436 91.7 11.5 96 11.6
2008-07-31 08:47:15 51°18.556 2°53.461 95.4 11.5 102 11.6
2008-07-31 08:47:20 51°18.552 2°53.486 98.8 11.5 104 11.6
2008-07-31 08:47:25 51°18.548 2°53.51 100.9 11.6 106 11.7
2008-07-31 08:47:30 51°18.543 2°53.534 103 11.6 108 11.5
2008-07-31 08:47:35 51°18.537 2°53.559 104.5 11.7 109 11.6
2008-07-31 08:47:40 51°18.532 2°53.584 105.8 11.7 110 11.6
2008-07-31 08:47:45 51°18.527 2°53.608 106.6 11.7 111 11.6
2008-07-31 08:47:50 51°18.521 2°53.632 106.6 11.7 111 11.6
2008-07-31 08:47:55 51°18.514 2°53.656 106.9 11.7 111 11.5
2008-07-31 08:48:00 51°18.508 2°53.68 107.3 11.8 112 11.5
2008-07-31 08:48:04 51°18.503 2°53.699 107.5 11.8 112 11.5
2008-07-31 08:48:10 51°18.496 2°53.729 107.5 11.8 112 11.5
2008-07-31 08:48:15 51°18.49 2°53.753 107.3 11.7 111 11.4
2008-07-31 08:48:20 51°18.484 2°53.777 108.8 11.8 114 11.4
2008-07-31 08:48:25 51°18.477 2°53.801 109.5 11.8 113 11.4
2008-07-31 08:48:30 51°18.47 2°53.825 110 11.8 115 11.4
2008-07-31 08:48:35 51°18.464 2°53.849 110.2 11.8 114 11.3
2008-07-31 08:48:40 51°18.456 2°53.872 110.5 11.9 115 11.3
2008-07-31 08:48:44 51°18.451 2°53.891 110.6 11.8 114 11.3
2008-07-31 08:48:50 51°18.443 2°53.92 110.6 11.8 115 11.3
2008-07-31 08:48:55 51°18.436 2°53.943 110.6 11.8 114 11.2
2008-07-31 08:49:00 51°18.429 2°53.967 109.9 11.8 113 11.2
2008-07-31 08:49:05 51°18.423 2°53.991 109.5 11.8 114 11.2
2008-07-31 08:49:09 51°18.417 2°54.011 109.6 11.8 114 11.3
2008-07-31 08:49:15 51°18.41 2°54.039 109.5 11.7 113 11.1
2008-07-31 08:49:20 51°18.404 2°54.062 109.4 11.1 114 11.1
2008-07-31 08:49:24 51°18.399 2°54.079 109.5 10.6 114 11.1
2008-07-31 08:49:30 51°18.393 2°54.103 110 10 115 11.1
2008-07-31 08:49:35 51°18.387 2°54.122 110.2 9.6 115 11
2008-07-31 08:49:40 51°18.382 2°54.14 110.4 9.2 116 11.1
2008-07-31 08:49:45 51°18.376 2°54.158 110.6 9 116 11.1
2008-07-31 08:49:50 51°18.37 2°54.175 110.8 8.7 116 11
2008-07-31 08:49:55 51°18.365 2°54.192 111 8.5 116 11
2008-07-31 08:50:00 51°18.36 2°54.208 111.1 8.3 117 11.1
2008-07-31 08:50:05 51°18.355 2°54.224 111.2 8.1 116 11
2008-07-31 08:50:10 51°18.35 2°54.24 111.2 8 117 11
2008-07-31 08:50:15 51°18.345 2°54.255 111 7.9 117 10.9
2008-07-31 08:50:20 51°18.34 2°54.271 110.2 7.8 117 10.9
2008-07-31 08:50:25 51°18.336 2°54.286 109.7 7.7 115 10.9
2008-07-31 08:50:29 51°18.332 2°54.298 109 7.6 116 10.9
2008-07-31 08:50:35 51°18.327 2°54.317 108.7 7.6 114 10.8
2008-07-31 08:50:40 51°18.323 2°54.332 108.4 7.5 115 10.8
2008-07-31 08:50:45 51°18.319 2°54.347 108 7.5 113 10.8
2008-07-31 08:50:50 51°18.315 2°54.362 107.9 7.5 114 10.8
2008-07-31 08:50:55 51°18.31 2°54.378 107.7 7.4 113 10.8
2008-07-31 08:51:00 51°18.306 2°54.393 107.3 7.4 113 10.7
2008-07-31 08:51:05 51°18.303 2°54.408 106.9 7.4 113 10.7
2008-07-31 08:51:10 51°18.299 2°54.423 106.3 7.4 112 10.7
2008-07-31 08:51:15 51°18.295 2°54.438 106.1 7.3 113 10.7
2008-07-31 08:51:20 51°18.291 2°54.453 105.9 7.3 112 10.6
2008-07-31 08:51:25 51°18.287 2°54.468 105.8 7.3 112 10.7
2008-07-31 08:51:30 51°18.283 2°54.483 105.6 7.3 112 10.6
2008-07-31 08:51:35 51°18.28 2°54.498 105.6 7.3 111 10.6
2008-07-31 08:51:40 51°18.276 2°54.513 105.3 7.3 111 10.5
2008-07-31 08:51:45 51°18.273 2°54.528 105 7.2 111 10.6
2008-07-31 08:51:50 51°18.269 2°54.543 104.8 7.3 110 10.6
2008-07-31 08:51:55 51°18.266 2°54.558 104.5 7.2 111 10.6
2008-07-31 08:52:00 51°18.262 2°54.573 104.1 7.2 110 10.6
2008-07-31 08:52:05 51°18.259 2°54.588 103.7 7.2 109 10.4
2008-07-31 08:52:10 51°18.256 2°54.603 103.2 7.2 109 10.4
2008-07-31 08:52:14 51°18.253 2°54.615 102.9 7.2 109 10.4
2008-07-31 08:52:20 51°18.249 2°54.633 102.6 7.2 109 10.6
2008-07-31 08:52:25 51°18.247 2°54.648 102.4 7.2 108 10.5
2008-07-31 08:52:29 51°18.244 2°54.661 102.1 7.2 108 10.4
2008-07-31 08:52:35 51°18.241 2°54.679 102.1 7.2 108 10.5
2008-07-31 08:52:40 51°18.237 2°54.694 102.1 7.2 108 10.4
2008-07-31 08:52:45 51°18.235 2°54.709 101.9 7.2 107 10.4
2008-07-31 08:52:50 51°18.231 2°54.724 101.7 7.2 108 10.4
2008-07-31 08:52:54 51°18.229 2°54.736 101.6 6.9 107 10.3
2008-07-31 08:53:00 51°18.226 2°54.752 101.3 6.3 108 10.4
2008-07-31 08:53:05 51°18.223 2°54.764 100.8 5.8 107 10.3
2008-07-31 08:53:10 51°18.221 2°54.775 100 5.4 107 10.3
2008-07-31 08:53:14 51°18.219 2°54.783 98.4 4.7 107 10.4
2008-07-31 08:53:20 51°18.218 2°54.793 95.3 3.9 104 10.3
2008-07-31 08:53:25 51°18.217 2°54.8 90.4 3 101 10.3
2008-07-31 08:53:30 51°18.217 2°54.805 85.5 2.4 100 10.3
2008-07-31 08:53:35 51°18.216 2°54.809 80.7 2 99 10.2
2008-07-31 08:53:40 51°18.216 2°54.812 75.9 1.3 100 10.3
2008-07-31 08:53:45 51°18.216 2°54.813 71 1 109 10.4
2008-07-31 08:53:50 51°18.215 2°54.814 65.4 0.5 146 10.4
2008-07-31 08:53:55 51°18.214 2°54.814 60 0.7 179 10.3
2008-07-31 08:54:00 51°18.213 2°54.813 55.5 0.9 205 10.3
2008-07-31 08:54:05 51°18.211 2°54.811 52.9 1.2 211 10.4
2008-07-31 08:54:10 51°18.21 2°54.81 50.3 1.3 213 10.3
2008-07-31 08:54:15 51°18.208 2°54.808 48.9 1.3 209 10.3
2008-07-31 08:54:20 51°18.207 2°54.807 47.9 1.3 211 10.3
2008-07-31 08:54:25 51°18.205 2°54.806 47.4 1.2 211 10.3
2008-07-31 08:54:30 51°18.204 2°54.804 46.9 1.3 212 6.7
2008-07-31 08:54:34 51°18.203 2°54.803 46.6 1.3 212 7.1
2008-07-31 08:54:40 51°18.201 2°54.801 46.4 1.3 212 4.8
2008-07-31 08:54:45 51°18.199 2°54.799 46.2 1.5 214 4.8
2008-07-31 08:54:50 51°18.197 2°54.797 46.1 1.6 214 -999
2008-07-31 08:54:56 51°18.195 2°54.795 46.1 1.6 215 -999
2008-07-31 08:55:02 51°18.193 2°54.792 46.1 1.6 216 -999
2008-07-31 08:55:07 51°18.191 2°54.791 46.4 1.6 214 -999
2008-07-31 08:55:13 51°18.189 2°54.788 46.6 1.5 215 4.8
2008-07-31 08:55:17 51°18.187 2°54.787 47 1.6 214 -999
2008-07-31 08:55:23 51°18.185 2°54.784 47.1 1.6 215 4.7
2008-07-31 08:55:28 51°18.183 2°54.782 47.8 1.6 215 4.9
2008-07-31 08:55:33 51°18.181 2°54.78 48.2 1.6 215 10.3
2008-07-31 08:55:38 51°18.179 2°54.778 48.6 1.6 215 4.9
2008-07-31 08:55:43 51°18.177 2°54.777 49.2 1.5 216 10.2
2008-07-31 08:55:47 51°18.176 2°54.775 49.7 1.5 216 4.7
2008-07-31 08:55:53 51°18.174 2°54.773 50.2 1.5 216 10.4
2008-07-31 08:55:57 51°18.173 2°54.771 50.6 1.5 218 10.3
2008-07-31 08:56:02 51°18.171 2°54.769 51.1 1.4 216 10.3
2008-07-31 08:56:07 51°18.17 2°54.767 51.5 1.2 220 10.3
2008-07-31 08:56:12 51°18.169 2°54.766 51.8 1 221 10.3
2008-07-31 08:56:17 51°18.168 2°54.765 51.3 0.8 222 10.3
2008-07-31 08:56:22 51°18.168 2°54.764 50 0.6 228 10.4
2008-07-31 08:56:26 51°18.167 2°54.763 48.2 0.4 226 10.4
2008-07-31 08:56:32 51°18.167 2°54.763 46 0.2 241 -999
2008-07-31 08:56:37 51°18.167 2°54.763 43.2 0.1 54 -999
2008-07-31 08:56:43 51°18.167 2°54.764 40.7 0.2 44 5.1
2008-07-31 08:56:48 51°18.168 2°54.764 39.2 0.3 54 4.9
2008-07-31 08:56:53 51°18.168 2°54.765 38.2 0.3 55 4.9
2008-07-31 08:56:58 51°18.168 2°54.765 37.3 0.3 61 5
2008-07-31 08:57:02 51°18.168 2°54.766 36.8 0.3 60 5
2008-07-31 08:57:07 51°18.168 2°54.766 36.7 0.3 69 -999
2008-07-31 08:57:12 51°18.169 2°54.767 36.6 0.3 69 5.2
2008-07-31 08:57:17 51°18.169 2°54.768 36.6 0.3 72 10.4
2008-07-31 08:57:22 51°18.169 2°54.768 36.7 0.3 69 10.4
2008-07-31 08:57:27 51°18.169 2°54.769 36.9 0.3 80 10.4
2008-07-31 08:57:32 51°18.169 2°54.769 37 0.2 82 10.4
2008-07-31 08:57:37 51°18.169 2°54.77 37.2 0.2 86 10.4
2008-07-31 08:57:41 51°18.169 2°54.77 37.4 0.2 80 10.4
2008-07-31 08:57:46 51°18.169 2°54.771 37.4 0.2 84 10.4
2008-07-31 08:57:51 51°18.169 2°54.771 37.4 0.2 86 10.5
2008-07-31 08:57:56 51°18.169 2°54.771 37.2 0.2 91 10.4
2008-07-31 08:58:01 51°18.169 2°54.772 36.9 0.1 100 10.4
2008-07-31 08:58:05 51°18.169 2°54.772 36.7 0.1 92 10.5
2008-07-31 08:58:10 51°18.169 2°54.772 36.1 0.1 92 10.4
2008-07-31 08:58:15 51°18.169 2°54.773 35.7 0.1 105 10.4
2008-07-31 08:58:20 51°18.169 2°54.773 34.9 0.1 105 10.4
2008-07-31 08:58:25 51°18.169 2°54.773 34.5 0.1 120 10.5
2008-07-31 08:58:30 51°18.169 2°54.773 33.6 -999 130 10.4
2008-07-31 08:58:34 51°18.169 2°54.773 32.9 -999 186 10.4
2008-07-31 08:58:40 51°18.169 2°54.773 32 -999 159 10.5
2008-07-31 08:58:45 51°18.169 2°54.773 31.5 0.1 254 10.4
2008-07-31 08:58:49 51°18.169 2°54.773 30.5 0.1 225 10.4
2008-07-31 08:58:55 51°18.169 2°54.773 29.9 0.1 247 10.4
2008-07-31 08:59:00 51°18.169 2°54.772 28.9 0.1 232 10.5
2008-07-31 08:59:05 51°18.169 2°54.772 28.2 0.1 255 10.5
2008-07-31 08:59:10 51°18.169 2°54.772 27.4 0.1 234 10.4
2008-07-31 08:59:15 51°18.169 2°54.772 26.6 0.1 245 10.5
2008-07-31 08:59:20 51°18.169 2°54.771 25.4 0.2 252 10.5
2008-07-31 08:59:25 51°18.169 2°54.771 24.8 0.1 243 10.5
2008-07-31 08:59:30 51°18.169 2°54.771 23.8 0.2 252 10.5
2008-07-31 08:59:34 51°18.168 2°54.77 23.1 0.2 251 10.5
2008-07-31 08:59:40 51°18.168 2°54.77 22.2 0.2 248 10.5
2008-07-31 08:59:45 51°18.168 2°54.77 21.5 0.2 253 10.4
2008-07-31 08:59:50 51°18.168 2°54.769 20.6 0.2 251 10.4
2008-07-31 08:59:54 51°18.168 2°54.769 20 0.2 250 10.4
2008-07-31 09:00:00 51°18.168 2°54.768 19.3 0.2 247 10.4
2008-07-31 09:00:05 51°18.168 2°54.768 18.7 0.2 254 10.4
2008-07-31 09:00:10 51°18.168 2°54.767 18 0.2 255 10.4
2008-07-31 09:00:15 51°18.168 2°54.767 17.7 0.2 255 10.4
2008-07-31 09:00:20 51°18.168 2°54.766 17.3 0.2 257 10.4
2008-07-31 09:00:25 51°18.168 2°54.766 17.1 0.2 261 10.4
2008-07-31 09:00:30 51°18.168 2°54.766 17 0.2 270 10.4
2008-07-31 09:00:34 51°18.168 2°54.765 17 0.2 269 10.4
2008-07-31 09:00:40 51°18.168 2°54.765 17.1 0.1 288 10.4
2008-07-31 09:00:45 51°18.168 2°54.765 17.3 0.1 293 10.4
2008-07-31 09:00:50 51°18.168 2°54.765 18 0.1 340 10.4
2008-07-31 09:00:55 51°18.168 2°54.765 18.8 0.1 335 10.4
2008-07-31 09:01:00 51°18.168 2°54.765 19.7 0.1 46 10.4
2008-07-31 09:01:05 51°18.168 2°54.765 20.5 0.1 351 10.5
2008-07-31 09:01:09 51°18.168 2°54.765 21.7 0.1 24 10.4
2008-07-31 09:01:14 51°18.168 2°54.765 22.4 0.1 -999 10.4
2008-07-31 09:01:20 51°18.169 2°54.765 23.4 0.1 30 10.4
2008-07-31 09:01:25 51°18.169 2°54.765 24.2 0.1 18 10.4
2008-07-31 09:01:30 51°18.169 2°54.765 25.1 0.1 27 10.4
2008-07-31 09:01:34 51°18.169 2°54.765 25.8 0.1 13 10.4
2008-07-31 09:01:40 51°18.169 2°54.766 26.5 0.1 21 10.4
2008-07-31 09:01:45 51°18.169 2°54.766 27 0.1 44 10.3
2008-07-31 09:01:50 51°18.169 2°54.766 27.6 0.1 -999 10.4
2008-07-31 09:01:54 51°18.169 2°54.766 27.9 0.1 26 10.4
2008-07-31 09:02:00 51°18.17 2°54.766 28.4 -999 5 10.4
2008-07-31 09:02:05 51°18.17 2°54.766 28.7 -999 358 10.4
2008-07-31 09:02:10 51°18.17 2°54.766 29 -999 19 10.4
2008-07-31 09:02:15 51°18.17 2°54.766 29.5 0.1 -999 10.4
2008-07-31 09:02:20 51°18.17 2°54.766 29.7 -999 52 10.4
2008-07-31 09:02:25 51°18.17 2°54.766 30 0.1 30 10.4
2008-07-31 09:02:30 51°18.17 2°54.766 30.2 -999 49 10.4
2008-07-31 09:02:34 51°18.17 2°54.766 30.4 -999 330 10.4
2008-07-31 09:02:40 51°18.17 2°54.766 30.5 -999 348 10.4
2008-07-31 09:02:45 51°18.17 2°54.766 30.6 -999 99 10.4
2008-07-31 09:02:50 51°18.17 2°54.766 30.7 -999 314 10.4
2008-07-31 09:02:55 51°18.17 2°54.766 30.8 -999 306 10.4
2008-07-31 09:03:00 51°18.17 2°54.766 30.8 -999 295 10.4
2008-07-31 09:03:05 51°18.17 2°54.766 30.7 -999 198 10.4
2008-07-31 09:03:10 51°18.17 2°54.766 30.7 -999 197 10.5
2008-07-31 09:03:15 51°18.17 2°54.766 30.7 -999 239 10.4
2008-07-31 09:03:20 51°18.17 2°54.766 30.6 -999 216 10.4
2008-07-31 09:03:25 51°18.17 2°54.766 30.5 -999 227 10.4
2008-07-31 09:03:29 51°18.17 2°54.766 30.5 -999 190 10.5
2008-07-31 09:03:34 51°18.17 2°54.766 30.4 -999 232 10.4
2008-07-31 09:03:40 51°18.17 2°54.766 30.4 -999 210 10.4
2008-07-31 09:03:45 51°18.17 2°54.766 30.4 0.1 219 10.4
2008-07-31 09:03:50 51°18.17 2°54.766 30.3 0.1 191 10.4
2008-07-31 09:03:54 51°18.17 2°54.766 30.2 -999 212 10.5
2008-07-31 09:04:00 51°18.17 2°54.766 30.1 -999 228 10.4
2008-07-31 09:04:05 51°18.17 2°54.766 30.1 -999 183 10.5
2008-07-31 09:04:10 51°18.17 2°54.765 29.9 0.1 245 10.5
2008-07-31 09:04:15 51°18.17 2°54.766 29.9 0.1 152 10.5
2008-07-31 09:04:20 51°18.17 2°54.765 29.9 -999 178 10.5
2008-07-31 09:04:25 51°18.17 2°54.766 29.9 -999 155 10.5
2008-07-31 09:04:30 51°18.169 2°54.765 29.9 -999 200 10.5
2008-07-31 09:04:34 51°18.169 2°54.765 29.9 -999 178 10.5
2008-07-31 09:04:40 51°18.169 2°54.765 29.8 -999 120 10.5
2008-07-31 09:04:45 51°18.169 2°54.765 29.8 -999 209 10.5
2008-07-31 09:04:50 51°18.169 2°54.765 29.8 -999 189 10.5
2008-07-31 09:04:55 51°18.169 2°54.765 29.8 -999 242 10.5
2008-07-31 09:05:00 51°18.169 2°54.765 29.8 -999 264 10.5
2008-07-31 09:05:05 51°18.169 2°54.765 29.8 -999 97 10.5
2008-07-31 09:05:10 51°18.169 2°54.765 29.8 -999 113 10.5
2008-07-31 09:05:14 51°18.169 2°54.765 29.8 -999 152 10.5
2008-07-31 09:05:20 51°18.169 2°54.765 29.8 -999 139 10.5
2008-07-31 09:05:25 51°18.169 2°54.765 29.7 -999 131 10.5
2008-07-31 09:05:29 51°18.169 2°54.765 29.7 -999 352 10.5
2008-07-31 09:05:35 51°18.169 2°54.766 29.8 -999 112 10.5
2008-07-31 09:05:40 51°18.169 2°54.766 29.8 -999 39 10.5
2008-07-31 09:05:45 51°18.169 2°54.766 29.8 -999 106 10.5
2008-07-31 09:05:50 51°18.169 2°54.766 29.8 -999 119 10.5
2008-07-31 09:05:54 51°18.169 2°54.766 29.8 0.1 130 10.5
2008-07-31 09:06:00 51°18.169 2°54.766 30 -999 296 10.5
2008-07-31 09:06:05 51°18.169 2°54.766 30 -999 94 10.4
2008-07-31 09:06:10 51°18.169 2°54.766 30 -999 338 10.5
2008-07-31 09:06:14 51°18.169 2°54.766 30 0.1 63 10.5
2008-07-31 09:06:20 51°18.169 2°54.766 29.9 0.1 24 10.5
2008-07-31 09:06:25 51°18.17 2°54.767 29.8 0.2 35 10.5
2008-07-31 09:06:30 51°18.17 2°54.767 29.7 0.3 25 10.5
2008-07-31 09:06:34 51°18.17 2°54.767 29.5 0.4 35 10.5
2008-07-31 09:06:40 51°18.171 2°54.768 29.3 0.4 28 10.5
2008-07-31 09:06:45 51°18.171 2°54.768 29.1 0.5 30 10.5
2008-07-31 09:06:50 51°18.172 2°54.769 28.9 0.5 26 10.5
2008-07-31 09:06:55 51°18.173 2°54.77 28.7 0.5 34 10.5
2008-07-31 09:07:00 51°18.173 2°54.77 28.7 0.5 29 10.6
2008-07-31 09:07:05 51°18.174 2°54.771 28.4 0.6 30 10.6
2008-07-31 09:07:10 51°18.175 2°54.771 28.2 0.6 29 10.6
2008-07-31 09:07:14 51°18.175 2°54.772 28.1 0.7 28 10.6
2008-07-31 09:07:20 51°18.176 2°54.773 27.7 0.7 27 10.5
2008-07-31 09:07:25 51°18.177 2°54.774 27.6 0.7 30 10.5
2008-07-31 09:07:30 51°18.178 2°54.774 27.5 0.7 26 10.5
2008-07-31 09:07:35 51°18.179 2°54.775 27.3 0.7 32 10.6
2008-07-31 09:07:40 51°18.18 2°54.776 27.2 0.8 35 10.6
2008-07-31 09:07:45 51°18.181 2°54.777 27.1 0.8 38 10.5
2008-07-31 09:07:50 51°18.181 2°54.779 27.7 0.8 39 10.4
2008-07-31 09:07:55 51°18.182 2°54.78 28.5 0.8 43 10.6
2008-07-31 09:08:00 51°18.183 2°54.781 29.5 0.9 42 10.5
2008-07-31 09:08:05 51°18.184 2°54.783 30.4 0.9 46 10.5
2008-07-31 09:08:10 51°18.185 2°54.784 31.3 0.9 43 10.5
2008-07-31 09:08:14 51°18.186 2°54.785 32.2 0.9 45 10.5
2008-07-31 09:08:20 51°18.187 2°54.787 32.9 0.9 44 10.7
2008-07-31 09:08:25 51°18.188 2°54.788 33.4 0.9 45 10.6
2008-07-31 09:08:29 51°18.188 2°54.789 33.9 0.9 43 10.7
2008-07-31 09:08:35 51°18.189 2°54.791 34.2 0.9 44 10.6
2008-07-31 09:08:40 51°18.19 2°54.792 34.6 1 43 10.7
2008-07-31 09:08:45 51°18.191 2°54.794 34.6 1 44 10.6
2008-07-31 09:08:50 51°18.192 2°54.795 34.7 1 43 10.5
2008-07-31 09:08:54 51°18.193 2°54.797 34.7 1 43 10.7
2008-07-31 09:09:00 51°18.194 2°54.798 34.6 0.9 43 10.6
2008-07-31 09:09:05 51°18.195 2°54.8 34.4 0.9 41 10.6
2008-07-31 09:09:10 51°18.196 2°54.801 34.2 0.9 42 10.6
2008-07-31 09:09:15 51°18.197 2°54.802 34.1 0.9 41 10.5
2008-07-31 09:09:20 51°18.198 2°54.804 33.9 0.9 42 10.5
2008-07-31 09:09:25 51°18.199 2°54.805 33.6 0.9 43 10.5
2008-07-31 09:09:30 51°18.2 2°54.806 33.3 0.8 38 10.5
2008-07-31 09:09:35 51°18.201 2°54.807 33 0.8 43 10.5
2008-07-31 09:09:40 51°18.201 2°54.809 32.6 0.8 40 10.6
2008-07-31 09:09:45 51°18.202 2°54.81 32.3 0.8 43 10.6
2008-07-31 09:09:50 51°18.203 2°54.811 31.9 0.8 38 10.5
2008-07-31 09:09:55 51°18.204 2°54.812 31.7 0.8 40 10.6
2008-07-31 09:10:00 51°18.204 2°54.813 31.4 0.8 39 10.7
2008-07-31 09:10:05 51°18.205 2°54.814 31.1 0.8 38 10.6
2008-07-31 09:10:09 51°18.206 2°54.815 30.7 0.8 40 10.6
2008-07-31 09:10:15 51°18.207 2°54.817 30.4 0.8 37 10.7
2008-07-31 09:10:20 51°18.207 2°54.818 30 0.7 36 10.6
2008-07-31 09:10:25 51°18.208 2°54.819 29.7 0.7 38 10.6
2008-07-31 09:10:30 51°18.209 2°54.819 29.4 0.7 33 10.6
2008-07-31 09:10:34 51°18.21 2°54.82 28.9 0.7 38 10.6
2008-07-31 09:10:40 51°18.211 2°54.821 28.2 0.7 30 10.7
2008-07-31 09:10:45 51°18.212 2°54.822 27.2 0.7 36 10.7
2008-07-31 09:10:50 51°18.213 2°54.823 26.2 0.7 28 10.7
2008-07-31 09:10:54 51°18.213 2°54.824 25.1 0.7 31 10.6
2008-07-31 09:11:00 51°18.214 2°54.824 24.1 0.7 25 10.6
2008-07-31 09:11:05 51°18.215 2°54.825 23.2 0.8 23 10.6
2008-07-31 09:11:10 51°18.216 2°54.826 22.4 0.9 22 10.6
2008-07-31 09:11:15 51°18.218 2°54.827 20.9 1.1 17 10.7
2008-07-31 09:11:20 51°18.22 2°54.827 18.8 1.3 17 10.7
2008-07-31 09:11:25 51°18.222 2°54.828 15.4 1.4 10 10.8
2008-07-31 09:11:30 51°18.224 2°54.828 11.2 1.6 5 10.6
2008-07-31 09:11:34 51°18.225 2°54.828 6.4 1.7 -999 10.7
2008-07-31 09:11:40 51°18.228 2°54.828 1.3 1.8 355 10.7
2008-07-31 09:11:45 51°18.231 2°54.827 357 2 350 10.7
2008-07-31 09:11:50 51°18.234 2°54.825 350.9 2.2 345 10.7
2008-07-31 09:11:55 51°18.237 2°54.824 348.2 2.4 343 10.8
2008-07-31 09:12:00 51°18.241 2°54.822 345.6 2.5 343 10.7
2008-07-31 09:12:05 51°18.244 2°54.82 345 2.6 341 10.7
2008-07-31 09:12:09 51°18.247 2°54.819 345.9 2.8 344 10.7
2008-07-31 09:12:15 51°18.252 2°54.817 348.4 2.9 347 10.9
2008-07-31 09:12:20 51°18.256 2°54.816 350 3.1 347 10.7
2008-07-31 09:12:25 51°18.261 2°54.814 351.2 3.4 348 10.8
2008-07-31 09:12:30 51°18.266 2°54.812 351.4 3.9 347 10.9
2008-07-31 09:12:35 51°18.272 2°54.81 351.2 4.4 348 10.8
2008-07-31 09:12:40 51°18.279 2°54.807 350.4 4.9 347 10.9
2008-07-31 09:12:45 51°18.286 2°54.805 349.7 5.2 347 10.7
2008-07-31 09:12:50 51°18.294 2°54.801 348.9 5.6 346 10.8
2008-07-31 09:12:55 51°18.302 2°54.798 348.3 5.8 346 10.9
2008-07-31 09:13:00 51°18.31 2°54.795 348 6.1 345 11
2008-07-31 09:13:05 51°18.318 2°54.791 347.6 6.4 345 10.8
2008-07-31 09:13:10 51°18.327 2°54.787 347 6.5 344 11
2008-07-31 09:13:14 51°18.334 2°54.784 346.4 6.7 344 10.8
2008-07-31 09:13:20 51°18.345 2°54.779 345.4 6.9 343 11
2008-07-31 09:13:25 51°18.354 2°54.774 344.5 7 342 11.1
2008-07-31 09:13:30 51°18.364 2°54.769 344.4 7.1 343 10.9
2008-07-31 09:13:35 51°18.373 2°54.765 345 7.2 344 11
2008-07-31 09:13:40 51°18.383 2°54.76 346 7.2 344 11
2008-07-31 09:13:45 51°18.393 2°54.757 347.1 7.3 346 11.1
2008-07-31 09:13:50 51°18.403 2°54.753 348 7.3 346 11.2
2008-07-31 09:13:54 51°18.411 2°54.75 349 7.4 348 11.2
2008-07-31 09:14:00 51°18.423 2°54.746 350 7.4 348 11.2
2008-07-31 09:14:05 51°18.433 2°54.742 350.3 7.5 348 11.2
2008-07-31 09:14:10 51°18.444 2°54.739 349.8 7.5 347 11.2
2008-07-31 09:14:15 51°18.454 2°54.735 349 7.6 346 11.3
2008-07-31 09:14:20 51°18.464 2°54.731 348 7.6 346 11.2
2008-07-31 09:14:25 51°18.474 2°54.726 347.4 7.6 345 11.2
2008-07-31 09:14:30 51°18.485 2°54.722 346.8 7.6 345 11.3
2008-07-31 09:14:35 51°18.495 2°54.718 346.8 7.6 345 11.3
2008-07-31 09:14:40 51°18.505 2°54.714 346.9 7.3 346 11.3
2008-07-31 09:14:45 51°18.514 2°54.71 347.4 6.9 346 11.3
2008-07-31 09:14:50 51°18.522 2°54.707 347.7 6.4 346 11.4
2008-07-31 09:14:55 51°18.531 2°54.704 348.3 6.1 347 11.5
2008-07-31 09:15:00 51°18.538 2°54.701 349.3 5.8 348 11.4
2008-07-31 09:15:05 51°18.546 2°54.699 350.4 5.4 349 11.5
2008-07-31 09:15:09 51°18.551 2°54.697 351.9 5.2 350 11.5
2008-07-31 09:15:14 51°18.558 2°54.696 353.1 4.8 350 11.5
2008-07-31 09:15:20 51°18.565 2°54.694 354.1 4.5 351 11.6
2008-07-31 09:15:25 51°18.571 2°54.692 353.4 4.3 349 11.5
2008-07-31 09:15:30 51°18.576 2°54.69 351.8 4.1 348 11.6
2008-07-31 09:15:35 51°18.582 2°54.688 350.3 4 347 11.6
2008-07-31 09:15:40 51°18.587 2°54.686 349 3.8 347 11.6
2008-07-31 09:15:45 51°18.592 2°54.684 348.3 3.6 346 11.6
2008-07-31 09:15:50 51°18.597 2°54.683 348.5 3.5 347 11.7
2008-07-31 09:15:54 51°18.6 2°54.681 349 3.4 346 11.7
2008-07-31 09:16:00 51°18.606 2°54.679 349.7 3.3 348 11.7
2008-07-31 09:16:05 51°18.61 2°54.678 350 3.2 347 11.7
2008-07-31 09:16:10 51°18.614 2°54.676 350.5 3.1 348 11.7
2008-07-31 09:16:15 51°18.618 2°54.675 350.7 3.1 348 11.7
2008-07-31 09:16:20 51°18.622 2°54.674 351.1 3 348 11.7
2008-07-31 09:16:25 51°18.626 2°54.672 351.2 2.8 347 11.8
2008-07-31 09:16:30 51°18.63 2°54.671 351.5 2.8 348 11.8
2008-07-31 09:16:35 51°18.633 2°54.67 351.6 2.7 348 11.9
2008-07-31 09:16:40 51°18.637 2°54.669 351.8 2.7 349 11.9
2008-07-31 09:16:45 51°18.641 2°54.667 351.9 2.6 348 11.9
2008-07-31 09:16:50 51°18.644 2°54.666 352 2.6 348 11.8
2008-07-31 09:16:55 51°18.647 2°54.665 352.3 2.5 349 11.9
2008-07-31 09:17:00 51°18.651 2°54.664 352.5 2.5 348 11.9
2008-07-31 09:17:05 51°18.654 2°54.663 352.5 2.3 349 11.9
2008-07-31 09:17:09 51°18.656 2°54.662 352.6 2.3 348 11.9
2008-07-31 09:17:15 51°18.66 2°54.661 352.7 2.3 348 11.9
2008-07-31 09:17:20 51°18.663 2°54.66 352.7 2.2 348 12
2008-07-31 09:17:25 51°18.666 2°54.659 352.9 2.2 348 11.9
2008-07-31 09:17:30 51°18.669 2°54.658 353.1 2.2 349 11.9
2008-07-31 09:17:34 51°18.671 2°54.658 353.1 2.1 349 11.9
2008-07-31 09:17:40 51°18.675 2°54.656 353 2.1 348 11.9
2008-07-31 09:17:45 51°18.677 2°54.656 352.8 2 348 11.9
2008-07-31 09:17:50 51°18.68 2°54.654 352.4 2 346 11.9
2008-07-31 09:17:54 51°18.682 2°54.654 352 2 347 11.9
2008-07-31 09:18:00 51°18.685 2°54.652 351.7 2 346 12
2008-07-31 09:18:05 51°18.688 2°54.651 351.3 1.9 346 11.9
2008-07-31 09:18:10 51°18.69 2°54.65 351.2 1.9 345 11.9
2008-07-31 09:18:14 51°18.692 2°54.649 351.1 1.9 346 12
2008-07-31 09:18:20 51°18.695 2°54.648 350.9 1.9 346 11.9
2008-07-31 09:18:25 51°18.697 2°54.647 350.9 1.8 345 12
2008-07-31 09:18:30 51°18.7 2°54.646 351 1.8 344 12
2008-07-31 09:18:34 51°18.702 2°54.645 351.1 1.7 345 12.1
2008-07-31 09:18:40 51°18.705 2°54.644 351.2 1.8 345 12
2008-07-31 09:18:45 51°18.707 2°54.643 351.2 1.7 346 12.1
2008-07-31 09:18:50 51°18.709 2°54.642 351.4 1.7 345 12.1
2008-07-31 09:18:55 51°18.711 2°54.641 351.4 1.7 345 12
2008-07-31 09:19:00 51°18.714 2°54.64 351.5 1.6 345 12
2008-07-31 09:19:05 51°18.716 2°54.639 351.5 1.6 344 12
2008-07-31 09:19:10 51°18.718 2°54.639 351.3 1.6 345 12.1
2008-07-31 09:19:15 51°18.72 2°54.638 351.2 1.6 344 12.1
2008-07-31 09:19:20 51°18.722 2°54.637 350.9 1.6 343 12.1
2008-07-31 09:19:25 51°18.724 2°54.636 350.7 1.5 343 12.1
2008-07-31 09:19:30 51°18.726 2°54.635 350.5 1.6 344 12.1
2008-07-31 09:19:35 51°18.729 2°54.634 350.2 1.5 343 12.1
2008-07-31 09:19:40 51°18.731 2°54.633 350 1.5 343 12.2
2008-07-31 09:19:45 51°18.732 2°54.632 349.7 1.5 342 12.1
2008-07-31 09:19:50 51°18.735 2°54.631 349.7 1.5 342 12.1
2008-07-31 09:19:54 51°18.736 2°54.63 349.5 1.6 344 12.1
2008-07-31 09:20:00 51°18.738 2°54.629 349.2 1.5 342 12.1
2008-07-31 09:20:05 51°18.74 2°54.627 349 1.5 342 12.1
2008-07-31 09:20:10 51°18.742 2°54.626 348.9 1.5 341 12.1